Readburn, New York
Current Conditions -  °F | °C
As of 9:55 AM on Monday 22 Dec 2014 (Local Time) from KMSV Reporting Station
Overcast Overcast  
Wind Chill: 21°   Ceiling: 300
Heat Index: 28°   Visibility: 3mi
Dew Point: 28°   Wind: 7mph
Humidity: 100%   Direction: 90°E
Pressure: 30.29"   Gusts: NA
Location:  42.1536°N, 75.1637°W
Report Text: KMSV 221455Z AUTO 09006KT 3SM OVC003 M02/M02 A3029 RMK AO1 52007
Loading
Personal Weather Stations






























Interactive Weather Map New forecast layout! Learn more

10-Day Weather Forecast

Advertisements
Track Severe Weather on mobile